Home PIREPS Pireps

Flight WIN1023

  • Submitted By: Vincent Fourni
  • Departure Airport: Trondheim Vaernes (ENVA)
  • Arrival Airport: Bruxelles National (EBBR)
  • Aircraft: YOUR CHOICE (YC)
  • Flight Time: 02.20
  • Date Submitted: 08/12/2017
  • Status: Accepted
Flight Details
Gross Revenue:
(25 load / € 0.00 per unit
€ 0.00
Fuel Cost:
(6203 fuel used @ 5.1 / unit)
€ 31,635.30

Additional Log Information:

View Log

Aircraft Used in flight is PMDG 737-800NGX Brussels Airlines Winglets
09:58 Brakes are On
10:00 Brakes are Released
10:02 Brakes are On
10:03 Brakes are Released
10:07 You Took off @ 170 Knots and Flaps at Position 3
Departure Weather
ENVA 080850Z VRB03KT 9999 VCSH BKN036 02/M00 Q0968 NOSIG RMK WIND 670FT 22012KTrn
10:07 Landing Gear Up @ 179 Knots and 210 Feet
10:08 Below FL100 you need to turn on the landing lights
12:06 You exceeded maximum bank angle
12:10 Below 10000 feet you are not allowed to go over 250 knots
12:15 Landing Gear Down @ 199 Knots and 2160 Feet
12:18 You Landed @ 118 Knots and with -600 Vertical Speed
Arrival Weather
EBBR 081050Z 27012KT 9999 VC SCT015 SCT020 03/01 Q1011 TEMPO 3500 SHSN BKN014CBrn
12:18 Your Landing was very hard
12:18 Paused
12:20 Unpaused
12:20 Brakes are On
12:21 Brussels Bel-Track1.0.1.2

Route Map

Corporate About Us Our Team Vacancies Information Fleet Route Network Rules and Regulations Operations Flight Schedules Event Center Tours Partners IVAO Vatsim Acars dev FSCB

fb Users Online No pilots online!
0 Pilot(s) and 138 Guest(s) Online
CMS by phpVMS - Design by Crazycreatives.com - Copyright © 2020 - Brussels Airlines Virtual